Time;durP1;ratioP1;P1;durP2;ratioP2;P2;SDS_P1;SDS_P2;PMS_P1;PMS_P2;Temp;Humidity;BMP_temperature;BMP_pressure;BME280_temperature;BME280_humidity;BME280_pressure;Samples;Min_cycle;Max_cycle;Signal;HPM_P1;HPM_P2
2021/06/14 00:00:56;;;;;;;4.45;1.88;;;14.90;99.90;;;;;;5030520;28;20048;-75
2021/06/14 00:03:23;;;;;;;3.63;1.90;;;15.20;99.90;;;;;;5031026;28;20694;-75
2021/06/14 00:05:49;;;;;;;6.53;2.42;;;15.10;99.90;;;;;;5031224;28;20029;-75
2021/06/14 00:08:20;;;;;;;5.05;1.80;;;15.00;99.90;;;;;;5031112;28;20042;-76
2021/06/14 00:10:47;;;;;;;4.20;2.00;;;15.10;99.90;;;;;;5029149;28;20088;-75
2021/06/14 00:13:13;;;;;;;6.03;2.15;;;15.10;99.90;;;;;;5030596;28;20487;-75
2021/06/14 00:15:42;;;;;;;4.70;2.05;;;15.10;99.90;;;;;;5031195;28;20382;-75
2021/06/14 00:18:08;;;;;;;3.05;1.75;;;15.30;99.90;;;;;;5030772;28;20022;-75
2021/06/14 00:20:34;;;;;;;3.97;1.75;;;15.50;99.90;;;;;;5030474;28;20049;-75
2021/06/14 00:23:01;;;;;;;5.72;2.08;;;15.30;99.90;;;;;;5030992;28;20094;-75
2021/06/14 00:25:28;;;;;;;4.93;1.73;;;16.10;99.90;;;;;;5031205;28;20069;-76
2021/06/14 00:27:55;;;;;;;4.38;1.90;;;15.50;99.90;;;;;;5030761;28;20055;-76
2021/06/14 00:30:26;;;;;;;4.20;2.00;;;15.30;99.90;;;;;;5030582;28;20107;-76
2021/06/14 00:32:52;;;;;;;5.68;1.98;;;15.50;99.90;;;;;;5026274;28;20032;-76
2021/06/14 00:35:18;;;;;;;4.28;2.10;;;15.30;99.90;;;;;;5022883;28;20065;-76
2021/06/14 00:37:43;;;;;;;4.13;1.80;;;16.40;99.90;;;;;;5025624;28;20033;-75
2021/06/14 00:40:09;;;;;;;3.30;1.60;;;15.60;99.90;;;;;;5034145;28;20042;-76
2021/06/14 00:42:35;;;;;;;4.93;1.90;;;15.30;99.90;;;;;;5029591;28;20038;-76
2021/06/14 00:45:01;;;;;;;4.40;2.00;;;15.80;99.90;;;;;;5014737;28;20109;-76
2021/06/14 00:47:26;;;;;;;7.68;2.15;;;15.40;99.90;;;;;;5024283;28;20068;-76
2021/06/14 00:49:52;;;;;;;3.08;1.77;;;15.20;99.90;;;;;;5033568;28;20088;-76
2021/06/14 00:52:18;;;;;;;9.18;1.98;;;15.00;99.90;;;;;;5034490;28;20036;-75
2021/06/14 00:54:44;;;;;;;3.25;1.85;;;16.10;99.90;;;;;;5034760;28;20034;-76
2021/06/14 00:57:09;;;;;;;5.82;2.10;;;14.80;99.90;;;;;;5065744;28;20125;-76
2021/06/14 00:59:35;;;;;;;6.15;2.08;;;14.80;99.90;;;;;;5033737;28;20030;-76
2021/06/14 01:02:01;;;;;;;6.05;2.33;;;14.80;99.90;;;;;;5032130;28;20503;-76
2021/06/14 01:04:27;;;;;;;5.47;2.20;;;14.60;99.90;;;;;;5033445;28;20029;-76
2021/06/14 01:06:52;;;;;;;3.90;1.90;;;15.50;99.90;;;;;;5034485;28;20047;-76
2021/06/14 01:09:18;;;;;;;4.28;1.73;;;14.50;99.90;;;;;;5033776;28;20053;-76
2021/06/14 01:12:02;;;;;;;4.63;1.92;;;15.00;99.90;;;;;;5034018;28;20025;-77
2021/06/14 01:14:53;;;;;;;3.22;1.90;;;14.60;99.90;;;;;;5034807;28;20021;-76
2021/06/14 01:17:37;;;;;;;3.65;1.77;;;14.70;99.90;;;;;;5033963;28;20025;-75
2021/06/14 01:20:20;;;;;;;5.85;2.00;;;14.60;99.90;;;;;;5033066;28;20033;-75
2021/06/14 01:23:01;;;;;;;5.43;1.92;;;14.50;99.90;;;;;;5032570;28;20036;-76
2021/06/14 01:25:38;;;;;;;3.92;2.03;;;14.50;99.90;;;;;;5033844;28;20045;-75
2021/06/14 01:28:06;;;;;;;8.60;2.33;;;14.90;99.90;;;;;;5033400;28;20053;-76
2021/06/14 01:30:35;;;;;;;3.40;1.90;;;14.20;99.90;;;;;;5033183;28;20121;-76
2021/06/14 01:33:03;;;;;;;5.13;2.30;;;14.20;99.90;;;;;;5028711;28;20441;-76
2021/06/14 01:35:36;;;;;;;3.03;2.10;;;14.00;99.90;;;;;;5031699;28;20021;-76
2021/06/14 01:38:02;;;;;;;;;;;14.10;99.90;;;;;;5034360;28;20497;-75
2021/06/14 01:40:28;;;;;;;4.03;2.10;;;13.80;99.90;;;;;;5033341;28;20038;-76
2021/06/14 01:42:56;;;;;;;3.88;2.00;;;14.00;99.90;;;;;;5033156;28;20029;-76
2021/06/14 01:45:25;;;;;;;3.08;1.95;;;13.40;99.90;;;;;;5033371;28;20061;-76
2021/06/14 01:47:51;;;;;;;5.45;2.00;;;14.30;99.90;;;;;;5031697;28;20528;-75
2021/06/14 19:51:45;;;;;;;7.22;1.70;;;23.40;79.20;;;;;;5117914;27;20317;-78
2021/06/14 19:54:12;;;;;;;4.65;1.88;;;22.00;78.60;;;;;;5066742;28;20020;-78
2021/06/14 19:56:43;;;;;;;3.45;1.92;;;21.80;82.80;;;;;;5070103;28;20025;-78
2021/06/14 19:59:09;;;;;;;3.65;2.00;;;21.70;90.10;;;;;;5050638;28;20035;-77
2021/06/14 20:01:35;;;;;;;5.55;1.90;;;21.50;90.80;;;;;;5069465;28;20056;-77
2021/06/14 20:04:00;;;;;;;7.55;1.73;;;21.40;92.10;;;;;;5075645;28;20029;-78
2021/06/14 20:06:26;;;;;;;7.00;1.90;;;21.40;92.50;;;;;;5075324;28;20062;-78
2021/06/14 20:08:52;;;;;;;5.30;2.20;;;21.30;94.50;;;;;;5068624;28;20025;-77
2021/06/14 20:11:20;;;;;;;3.47;1.65;;;21.20;96.10;;;;;;5071974;28;20064;-77
2021/06/14 20:13:46;;;;;;;4.75;1.50;;;21.20;96.60;;;;;;5073121;28;20100;-77
2021/06/14 20:16:12;;;;;;;6.05;1.65;;;21.10;98.10;;;;;;5072760;28;20044;-77
2021/06/14 20:18:38;;;;;;;4.43;1.60;;;20.90;99.30;;;;;;5070916;28;20024;-77
2021/06/14 20:21:04;;;;;;;3.92;1.50;;;20.90;99.90;;;;;;5070469;28;20047;-77
2021/06/14 20:23:31;;;;;;;2.97;1.40;;;20.80;99.90;;;;;;5068576;28;20028;-77
2021/06/14 20:25:57;;;;;;;2.42;1.48;;;20.80;99.90;;;;;;5069633;28;20016;-77
2021/06/14 20:28:23;;;;;;;6.47;1.70;;;20.70;99.90;;;;;;5071443;28;20086;-77
2021/06/14 20:30:49;;;;;;;3.17;1.70;;;20.60;99.90;;;;;;5069221;28;20025;-77
2021/06/14 20:33:15;;;;;;;2.72;1.20;;;20.40;99.90;;;;;;5070757;28;20027;-77
2021/06/14 20:35:41;;;;;;;3.90;1.38;;;20.30;99.90;;;;;;5069747;28;20025;-77
2021/06/14 20:38:09;;;;;;;2.88;1.63;;;20.10;99.90;;;;;;5069877;28;20489;-77
2021/06/14 20:40:35;;;;;;;5.00;1.50;;;20.00;99.90;;;;;;5069321;28;20044;-77
2021/06/14 20:43:00;;;;;;;5.50;1.75;;;20.00;99.90;;;;;;5069594;28;20029;-77
2021/06/14 20:45:26;;;;;;;5.00;1.90;;;19.90;99.90;;;;;;5070601;28;20096;-76
2021/06/14 20:47:52;;;;;;;3.92;1.85;;;19.80;99.90;;;;;;5052966;28;20098;-77
2021/06/14 20:50:17;;;;;;;3.35;1.90;;;19.70;99.90;;;;;;5068145;28;20028;-77
2021/06/14 20:52:43;;;;;;;3.55;1.70;;;19.70;99.90;;;;;;5067873;28;20035;-77
2021/06/14 20:55:10;;;;;;;6.32;2.10;;;19.70;99.90;;;;;;5068280;28;20029;-77
2021/06/14 20:57:36;;;;;;;6.43;2.00;;;19.80;99.90;;;;;;5069380;28;20028;-77
2021/06/14 21:00:06;;;;;;;6.07;1.77;;;19.70;99.90;;;;;;5070038;28;20029;-77
2021/06/14 21:02:32;;;;;;;6.75;2.30;;;19.60;99.90;;;;;;5062012;28;20033;-77
2021/06/14 21:04:58;;;;;;;3.92;1.67;;;19.60;99.90;;;;;;5060493;28;20069;-77
2021/06/14 21:07:24;;;;;;;4.43;1.88;;;19.50;99.90;;;;;;5057626;28;20425;-77
2021/06/14 21:09:50;;;;;;;6.55;1.80;;;19.50;99.90;;;;;;5039814;28;20115;-77
2021/06/14 21:12:15;;;;;;;9.07;2.30;;;19.50;99.90;;;;;;5059195;28;20394;-77
2021/06/14 21:14:41;;;;;;;3.40;1.80;;;19.30;99.90;;;;;;5057980;28;20025;-77
2021/06/14 21:17:07;;;;;;;6.10;2.10;;;19.20;99.90;;;;;;5058587;28;20029;-77
2021/06/14 21:19:33;;;;;;;9.23;1.85;;;19.10;99.90;;;;;;5058101;28;20029;-77
2021/06/14 21:21:59;;;;;;;3.97;2.05;;;19.20;99.90;;;;;;5058643;28;20059;-77
2021/06/14 21:24:25;;;;;;;4.22;1.73;;;19.20;99.90;;;;;;5058399;28;20032;-77
2021/06/14 21:26:50;;;;;;;6.60;1.75;;;19.10;99.90;;;;;;5041872;28;20096;-77
2021/06/14 21:29:16;;;;;;;4.05;1.92;;;18.90;99.90;;;;;;5057921;28;20037;-77
2021/06/14 21:31:42;;;;;;;11.60;2.22;;;18.20;99.90;;;;;;5057928;28;20041;-77
2021/06/14 21:34:10;;;;;;;5.70;1.80;;;18.70;99.90;;;;;;5057606;28;20029;-77
2021/06/14 21:36:38;;;;;;;4.53;2.03;;;18.70;99.90;;;;;;5057970;28;20056;-77
2021/06/14 21:39:05;;;;;;;8.15;1.83;;;18.60;99.90;;;;;;5039531;28;20056;-77
2021/06/14 21:41:31;;;;;;;5.10;1.63;;;18.60;99.90;;;;;;5056008;28;20025;-77
2021/06/14 21:43:57;;;;;;;5.03;2.25;;;18.50;99.90;;;;;;5056471;28;20024;-77
2021/06/14 21:46:23;;;;;;;3.28;2.15;;;18.40;99.90;;;;;;5056687;28;20025;-77
2021/06/14 21:48:48;;;;;;;5.88;2.30;;;18.40;99.90;;;;;;5055092;28;20037;-77
2021/06/14 21:51:14;;;;;;;3.35;1.88;;;18.30;99.90;;;;;;5055132;28;20039;-77
2021/06/14 21:53:40;;;;;;;3.90;2.10;;;18.20;99.90;;;;;;5054911;28;20086;-77
2021/06/14 21:56:05;;;;;;;7.30;2.13;;;18.30;99.90;;;;;;5057007;28;20028;-77
2021/06/14 21:58:31;;;;;;;4.05;2.10;;;18.00;99.90;;;;;;5057653;28;20036;-77
2021/06/14 22:00:56;;;;;;;6.05;2.40;;;18.00;99.90;;;;;;5056870;28;20029;-77
2021/06/14 22:03:22;;;;;;;10.90;2.65;;;18.50;99.90;;;;;;5057501;28;20037;-77
2021/06/14 22:05:48;;;;;;;10.73;3.75;;;17.80;99.90;;;;;;5060770;28;20128;-77
2021/06/14 22:08:13;;;;;;;6.55;1.95;;;17.80;99.90;;;;;;5057367;28;20028;-77
2021/06/14 22:10:39;;;;;;;3.70;2.35;;;17.80;99.90;;;;;;5041392;28;20029;-77
2021/06/14 22:13:10;;;;;;;6.38;2.35;;;17.80;99.90;;;;;;5060303;28;20094;-77
2021/06/14 22:15:37;;;;;;;4.65;2.08;;;18.40;99.90;;;;;;5059760;28;20463;-77
2021/06/14 22:18:03;;;;;;;4.45;1.85;;;17.70;99.90;;;;;;5038115;28;20406;-76
2021/06/14 22:20:29;;;;;;;4.00;2.00;;;17.70;99.90;;;;;;5054693;28;20063;-77
2021/06/14 22:22:55;;;;;;;4.03;2.17;;;17.70;99.90;;;;;;5054439;28;20537;-77
2021/06/14 22:25:20;;;;;;;7.68;2.17;;;17.50;99.90;;;;;;5056844;28;20110;-77
2021/06/14 22:27:46;;;;;;;5.78;1.92;;;17.80;99.90;;;;;;5055105;28;20067;-77
2021/06/14 22:30:12;;;;;;;6.60;2.60;;;17.70;99.90;;;;;;5037777;28;20025;-77
2021/06/14 22:32:38;;;;;;;3.97;2.03;;;17.50;99.90;;;;;;5054987;28;20070;-77
2021/06/14 22:35:05;;;;;;;4.63;2.20;;;17.40;99.90;;;;;;5056102;28;20025;-77
2021/06/14 22:37:30;;;;;;;6.10;2.13;;;17.30;99.90;;;;;;5055878;28;20017;-77
2021/06/14 22:39:56;;;;;;;5.38;2.40;;;17.30;99.90;;;;;;5056138;28;20534;-77
2021/06/14 22:42:22;;;;;;;7.20;2.55;;;17.50;99.90;;;;;;5055340;28;20108;-77
2021/06/14 22:44:48;;;;;;;4.85;2.20;;;17.20;99.90;;;;;;5054559;28;20030;-77
2021/06/14 22:47:13;;;;;;;11.93;2.03;;;17.30;99.90;;;;;;5054552;28;20035;-77
2021/06/14 22:49:39;;;;;;;5.57;2.15;;;17.20;99.90;;;;;;5052896;28;20032;-77
2021/06/14 22:52:05;;;;;;;6.35;2.28;;;17.20;99.90;;;;;;5053523;28;20092;-76
2021/06/14 22:54:30;;;;;;;5.90;2.13;;;17.00;99.90;;;;;;5053745;28;20029;-77
2021/06/14 22:56:56;;;;;;;4.28;2.38;;;17.00;99.90;;;;;;5054486;28;20032;-77
2021/06/14 22:59:22;;;;;;;4.63;2.30;;;17.00;99.90;;;;;;5054024;28;20029;-77
2021/06/14 23:01:47;;;;;;;4.38;2.55;;;16.40;99.90;;;;;;5053476;28;20021;-77
2021/06/14 23:04:13;;;;;;;5.50;2.95;;;16.70;99.90;;;;;;5053247;28;20095;-76
2021/06/14 23:06:38;;;;;;;3.80;2.40;;;16.50;99.90;;;;;;5061618;22;20045;-77
2021/06/14 23:09:04;;;;;;;5.05;2.20;;;16.40;99.90;;;;;;5038366;28;20037;-76
2021/06/14 23:11:30;;;;;;;4.18;2.20;;;16.50;99.90;;;;;;5034131;28;20029;-76
2021/06/14 23:13:56;;;;;;;3.75;2.35;;;16.40;99.90;;;;;;5035778;28;20501;-76
2021/06/14 23:16:22;;;;;;;3.75;2.22;;;16.30;99.90;;;;;;5036507;28;20378;-76
2021/06/14 23:18:48;;;;;;;4.63;2.90;;;16.60;99.90;;;;;;5034110;28;20037;-76
2021/06/14 23:21:14;;;;;;;6.22;2.47;;;17.30;99.90;;;;;;5035024;28;20112;-76
2021/06/14 23:23:39;;;;;;;6.40;2.75;;;16.10;99.90;;;;;;5037227;28;20534;-77
2021/06/14 23:26:05;;;;;;;4.55;2.20;;;16.10;99.90;;;;;;5032137;28;20046;-76
2021/06/14 23:28:31;;;;;;;4.60;2.55;;;16.10;99.90;;;;;;5016334;28;20037;-74
2021/06/14 23:30:56;;;;;;;4.35;2.60;;;16.00;99.90;;;;;;5034157;28;20029;-77
2021/06/14 23:33:22;;;;;;;4.20;2.75;;;16.80;99.90;;;;;;5033486;28;20059;-78
2021/06/14 23:35:48;;;;;;;4.70;2.25;;;16.00;99.90;;;;;;5034094;28;20034;-77
2021/06/14 23:38:14;;;;;;;4.53;2.60;;;16.80;99.90;;;;;;5033681;28;20030;-77
2021/06/14 23:40:40;;;;;;;3.70;2.33;;;16.50;99.90;;;;;;5033308;28;20032;-78
2021/06/14 23:43:06;;;;;;;4.80;2.42;;;16.00;99.90;;;;;;5034237;28;20034;-79
2021/06/14 23:45:32;;;;;;;7.30;2.38;;;16.10;99.90;;;;;;5033600;28;20171;-77
2021/06/14 23:47:57;;;;;;;6.22;2.95;;;16.10;99.90;;;;;;5033856;28;20044;-77
2021/06/14 23:50:23;;;;;;;5.55;2.67;;;16.10;99.90;;;;;;5034311;28;20429;-78
2021/06/14 23:52:49;;;;;;;7.05;2.85;;;15.90;99.90;;;;;;5032508;28;20093;-77
2021/06/14 23:55:18;;;;;;;5.72;2.83;;;16.00;99.90;;;;;;5032518;28;20029;-77
2021/06/14 23:57:46;;;;;;;5.60;2.95;;;16.00;99.90;;;;;;5034533;28;20060;-77
